Columbus Air Force Base
KCBM : now visible

Airfield :











YOU CAN JOIN US ON...

 
LOGIN :

Register | Disclaimer

   EN    FR    IT 

 









Legend :    VFR   Marginal VFR   IFR   Intensive IFR   Very Intensive IFR
Visi :
Ceiling :
>= 8 km
>= 3000ft
5 to 8 km
1000 to 3000 ft
1500m to 5 km
500 to 1000 ft
800 to 1500m
200 to 500 ft
< 800m
< 200 ft
Symbols :   Thunderstorms  Fog  Heavy snow  Heavy precipitations  Wind > 20 kt







- Airport Elevation : 219 ft


KCBM - Columbus Air Force Base

CURRENT METAR :
  • 201456Z AUTO 16009KT 10SM CLR 26/15 A3023 RMK AO2 SLP238 T02550152 52018

EXPIRED METARs :
  • 201356Z AUTO 16012KT 10SM FEW060 23/15 A3022 RMK AO2 SLP235 T02330146

TAF TAF KCBM
Valid from the 20 at 09:00 until the 21 at 15:00 UTC


200900Z 2009/2115 13006KT 9999 SCT040 QNH3010INS
BECMG 2014/2015 13010G15KT 9999 SCT040 QNH3010INS
BECMG 2023/2024 VRB06KT 9999 SKC QNH3011INS TX30/2020Z TN21/2012Z
No reported NOTAMs for that airfield.



MET'MAP, your aeronautical weather chart ! - Copyright ORBIFLY December 2007 - Disclaimer

ORBIFLY MET'MAP TEAM :

Programming & Development : Alexandra Zaïnal
Concept & Development : Baudouin d'Aumeries
Co-Development & Prog : Marc-Olivier Méhu
Technical & hardware support : Manuel Goepfert

Contact : metmap@orbifly.com




SOURCES & CREDITS :

   NOAA       Earth
Advisory